Time;durP1;ratioP1;P1;durP2;ratioP2;P2;SDS_P1;SDS_P2;PMS_P1;PMS_P2;Temp;Humidity;BMP_temperature;BMP_pressure;BME280_temperature;BME280_humidity;BME280_pressure;Samples;Min_cycle;Max_cycle;Signal;HPM_P1;HPM_P2
2021/03/28 00:01:41;;;;;;;9.82;6.10;;;;;;;;;;5076005;28;20071;-77
2021/03/28 00:04:13;;;;;;;11.88;7.10;;;;;;;;;;5093387;28;20035;-77
2021/03/28 00:06:44;;;;;;;10.73;6.88;;;;;;;;;;5091662;28;20111;-78
2021/03/28 00:09:22;;;;;;;10.32;5.97;;;;;;;;;;5092831;28;20040;-77
2021/03/28 00:12:06;;;;;;;11.18;6.80;;;;;;;;;;5093180;28;20104;-77
2021/03/28 00:14:34;;;;;;;9.55;6.28;;;;;;;;;;5082600;28;20020;-77
2021/03/28 00:17:01;;;;;;;8.60;5.70;;;;;;;;;;5072698;28;20116;-78
2021/03/28 00:19:32;;;;;;;8.70;5.82;;;;;;;;;;5071985;28;20116;-77
2021/03/28 00:22:00;;;;;;;9.50;5.75;;;;;;;;;;5054934;28;20044;-77
2021/03/28 00:24:30;;;;;;;11.20;6.47;;;;;;;;;;5072915;28;20037;-77
2021/03/28 00:27:09;;;;;;;9.55;6.05;;;;;;;;;;5072516;28;20048;-77
2021/03/28 00:29:51;;;;;;;11.85;6.13;;;;;;;;;;5073040;28;20441;-77
2021/03/28 00:32:42;;;;;;;12.13;6.53;;;;;;;;;;5073044;28;20111;-77
2021/03/28 00:35:12;;;;;;;13.45;7.05;;;;;;;;;;5063276;28;20540;-77
2021/03/28 00:37:41;;;;;;;10.98;5.93;;;;;;;;;;5072999;28;20505;-77
2021/03/28 00:40:09;;;;;;;10.45;6.40;;;;;;;;;;5072983;28;20090;-77
2021/03/28 00:42:44;;;;;;;12.15;6.43;;;;;;;;;;5073589;28;20071;-77
2021/03/28 00:45:44;;;;;;;9.63;5.70;;;;;;;;;;5076485;28;20116;-77
2021/03/28 00:48:15;;;;;;;10.30;6.63;;;;;;;;;;5076503;28;20087;-77
2021/03/28 00:50:48;;;;;;;10.32;6.72;;;;;;;;;;5075650;28;20029;-77
2021/03/28 00:53:29;;;;;;;9.93;6.32;;;;;;;;;;5075703;28;20032;-77
2021/03/28 00:56:12;;;;;;;10.05;6.38;;;;;;;;;;5076767;28;20024;-77
2021/03/28 00:58:46;;;;;;;15.77;8.20;;;;;;;;;;5076606;28;20034;-77
2021/03/28 01:02:03;;;;;;;11.95;6.57;;;;;;;;;;5076356;28;20502;-77
2021/03/28 01:04:50;;;;;;;10.63;6.03;;;;;;;;;;5075552;28;20028;-77
2021/03/28 01:07:23;;;;;;;10.57;6.22;;;;;;;;;;5076345;28;20089;-77
2021/03/28 01:10:00;;;;;;;9.75;5.50;;;;;;;;;;5084966;28;20489;-77
2021/03/28 01:13:03;;;;;;;11.88;6.43;;;;;;;;;;5101786;28;20028;-77
2021/03/28 01:15:47;;;;;;;9.77;5.63;;;;;;;;;;5119080;28;20470;-78
2021/03/28 01:18:27;;;;;;;9.32;5.95;;;;;;;;;;5116638;28;20032;-77
2021/03/28 01:21:17;;;;;;;8.88;5.40;;;;;;;;;;5115596;28;20036;-77
2021/03/28 01:23:46;;;;;;;7.97;5.43;;;;;;;;;;5121327;28;20421;-78
2021/03/28 01:26:33;;;;;;;10.30;5.55;;;;;;;;;;5127869;28;20036;-78
2021/03/28 01:29:15;;;;;;;10.98;6.07;;;;;;;;;;5127187;28;20121;-78
2021/03/28 01:31:51;;;;;;;7.60;5.25;;;;;;;;;;5128165;28;20036;-78
2021/03/28 01:34:26;;;;;;;10.43;6.22;;;;;;;;;;5128498;28;20031;-78
2021/03/28 01:36:55;;;;;;;8.75;5.70;;;;;;;;;;5126916;28;20042;-78
2021/03/28 01:39:31;;;;;;;8.05;5.90;;;;;;;;;;5117964;28;20092;-78
2021/03/28 01:42:00;;;;;;;8.60;5.78;;;;;;;;;;5105717;28;20032;-78
2021/03/28 01:45:12;;;;;;;10.85;6.20;;;;;;;;;;5104416;28;20049;-78
2021/03/28 01:47:59;;;;;;;10.18;6.78;;;;;;;;;;5082709;28;20370;-78
2021/03/28 01:50:42;;;;;;;10.23;6.20;;;;;;;;;;5106069;28;20093;-78
2021/03/28 01:53:36;;;;;;;9.25;6.30;;;;;;;;;;5104062;28;20044;-78
2021/03/28 01:56:21;;;;;;;10.80;5.85;;;;;;;;;;5103378;28;20067;-78
2021/03/28 01:59:02;;;;;;;9.30;6.15;;;;;;;;;;5107505;28;20032;-78
2021/03/28 02:01:42;;;;;;;10.02;6.78;;;;;;;;;;5108942;28;20047;-78
2021/03/28 02:04:22;;;;;;;11.43;7.22;;;;;;;;;;5109907;28;20042;-78
2021/03/28 02:07:07;;;;;;;14.07;7.25;;;;;;;;;;5109270;28;20101;-78
2021/03/28 02:09:46;;;;;;;11.25;6.68;;;;;;;;;;5108501;28;20040;-78
2021/03/28 02:12:30;;;;;;;12.85;6.88;;;;;;;;;;5108293;28;20122;-78
2021/03/28 02:15:20;;;;;;;11.02;6.82;;;;;;;;;;5109620;28;20038;-78
2021/03/28 02:18:08;;;;;;;11.13;6.47;;;;;;;;;;5109187;28;20058;-78
2021/03/28 02:20:38;;;;;;;12.23;7.53;;;;;;;;;;5107174;28;20454;-78
2021/03/28 02:23:12;;;;;;;15.27;7.22;;;;;;;;;;5108491;28;20115;-78
2021/03/28 02:26:07;;;;;;;12.73;7.00;;;;;;;;;;5109355;28;20040;-78
2021/03/28 02:28:47;;;;;;;11.20;6.55;;;;;;;;;;5107634;28;20052;-78
2021/03/28 02:31:21;;;;;;;14.73;6.38;;;;;;;;;;5109580;28;20048;-78
2021/03/28 02:34:25;;;;;;;10.85;5.85;;;;;;;;;;5109840;28;20066;-79
2021/03/28 02:37:04;;;;;;;10.73;5.85;;;;;;;;;;5085147;28;20037;-78
2021/03/28 02:39:32;;;;;;;12.23;6.60;;;;;;;;;;5114191;28;20035;-78
2021/03/28 02:42:21;;;;;;;12.68;6.82;;;;;;;;;;5128742;28;20044;-78
2021/03/28 02:45:06;;;;;;;18.30;8.27;;;;;;;;;;5128139;28;20039;-78
2021/03/28 02:47:44;;;;;;;13.95;8.48;;;;;;;;;;5127395;28;20081;-78
2021/03/28 02:50:28;;;;;;;13.80;7.32;;;;;;;;;;5128621;28;20054;-78
2021/03/28 02:53:09;;;;;;;14.07;8.35;;;;;;;;;;5127026;28;20095;-78
2021/03/28 02:55:37;;;;;;;13.50;7.07;;;;;;;;;;5128738;28;20039;-78
2021/03/28 02:58:09;;;;;;;13.00;7.95;;;;;;;;;;5127477;28;20035;-78
2021/03/28 03:01:12;;;;;;;15.55;8.23;;;;;;;;;;5128278;28;20040;-78
2021/03/28 03:03:56;;;;;;;10.88;6.75;;;;;;;;;;5128034;28;20066;-78
2021/03/28 03:07:06;;;;;;;13.00;7.78;;;;;;;;;;5126246;28;20032;-78
2021/03/28 03:09:53;;;;;;;11.93;7.90;;;;;;;;;;5105905;28;20935;-78
2021/03/28 03:12:36;;;;;;;12.02;6.82;;;;;;;;;;5103873;28;20112;-78
2021/03/28 03:15:06;;;;;;;11.82;7.75;;;;;;;;;;5105855;28;20032;-78
2021/03/28 03:17:59;;;;;;;23.75;7.97;;;;;;;;;;5106460;28;20081;-78
2021/03/28 03:20:40;;;;;;;15.32;9.30;;;;;;;;;;5106752;28;20039;-78
2021/03/28 03:23:18;;;;;;;19.80;9.85;;;;;;;;;;5106557;28;20040;-77
2021/03/28 03:26:14;;;;;;;14.43;9.27;;;;;;;;;;5103710;28;20089;-78
2021/03/28 03:28:49;;;;;;;14.48;9.52;;;;;;;;;;5105341;28;20074;-78
2021/03/28 03:31:26;;;;;;;17.30;9.70;;;;;;;;;;5103304;28;20099;-78
2021/03/28 03:34:33;;;;;;;15.75;9.68;;;;;;;;;;5102738;28;20110;-79
2021/03/28 03:37:17;;;;;;;14.00;9.00;;;;;;;;;;5103782;28;20110;-78
2021/03/28 03:40:02;;;;;;;17.08;9.18;;;;;;;;;;5102016;28;20488;-78
2021/03/28 03:42:54;;;;;;;12.55;8.40;;;;;;;;;;5103040;28;20055;-78
2021/03/28 03:45:38;;;;;;;17.50;8.75;;;;;;;;;;5104084;28;20040;-78
2021/03/28 03:48:10;;;;;;;19.73;9.50;;;;;;;;;;5104379;28;20047;-77
2021/03/28 03:50:47;;;;;;;15.32;8.82;;;;;;;;;;5104286;28;20050;-78
2021/03/28 03:53:19;;;;;;;13.25;8.55;;;;;;;;;;5103897;28;20039;-78
2021/03/28 03:56:02;;;;;;;13.18;8.45;;;;;;;;;;5104991;28;20084;-78
2021/03/28 03:58:41;;;;;;;13.88;8.38;;;;;;;;;;5111294;28;20047;-78
2021/03/28 04:01:24;;;;;;;15.45;9.75;;;;;;;;;;5112846;28;20040;-78
2021/03/28 04:04:00;;;;;;;17.33;9.32;;;;;;;;;;5113951;28;20032;-78
2021/03/28 04:06:53;;;;;;;12.63;8.32;;;;;;;;;;5112294;28;20439;-78
2021/03/28 04:09:28;;;;;;;17.23;9.82;;;;;;;;;;5112726;28;20058;-79
2021/03/28 04:11:59;;;;;;;17.10;10.05;;;;;;;;;;5113145;28;20040;-79
2021/03/28 04:14:38;;;;;;;16.63;9.77;;;;;;;;;;5111475;28;20047;-79
2021/03/28 04:17:27;;;;;;;14.25;9.23;;;;;;;;;;5111829;28;20040;-78
2021/03/28 04:20:05;;;;;;;14.85;9.35;;;;;;;;;;5115313;28;20039;-79
2021/03/28 04:22:55;;;;;;;17.35;10.43;;;;;;;;;;5116397;28;20051;-79
2021/03/28 04:25:41;;;;;;;21.20;10.75;;;;;;;;;;5113920;28;20479;-78
2021/03/28 04:28:25;;;;;;;;;;;;;;;;;;5115221;28;20036;-78
2021/03/28 04:30:57;;;;;;;14.70;9.07;;;;;;;;;;5114437;28;19955;-78
2021/03/28 04:33:31;;;;;;;13.10;8.10;;;;;;;;;;5114776;28;20509;-78
2021/03/28 04:36:11;;;;;;;12.25;7.93;;;;;;;;;;5113823;28;20043;-78
2021/03/28 04:39:04;;;;;;;12.25;7.50;;;;;;;;;;5112468;28;20524;-78
2021/03/28 04:41:50;;;;;;;15.85;7.07;;;;;;;;;;5113849;28;20056;-78
2021/03/28 04:44:25;;;;;;;13.77;7.20;;;;;;;;;;5112997;28;20036;-78
2021/03/28 04:47:19;;;;;;;10.00;6.53;;;;;;;;;;5112631;28;20063;-78
2021/03/28 04:49:57;;;;;;;9.75;6.40;;;;;;;;;;5112452;28;20040;-78
2021/03/28 04:52:47;;;;;;;15.38;8.05;;;;;;;;;;5110799;28;20040;-78
2021/03/28 04:55:34;;;;;;;13.80;6.95;;;;;;;;;;5111834;28;20040;-78
2021/03/28 04:58:12;;;;;;;16.40;8.25;;;;;;;;;;5107986;28;20493;-79
2021/03/28 05:01:17;;;;;;;12.75;7.32;;;;;;;;;;5105651;28;20032;-78
2021/03/28 05:04:00;;;;;;;12.52;7.28;;;;;;;;;;5107257;28;20035;-78
2021/03/28 05:06:47;;;;;;;10.48;6.53;;;;;;;;;;5105263;28;20063;-78
2021/03/28 05:09:28;;;;;;;11.13;6.53;;;;;;;;;;5111355;28;20038;-78
2021/03/28 05:12:06;;;;;;;10.77;6.78;;;;;;;;;;5124891;28;20389;-78
2021/03/28 05:14:50;;;;;;;16.38;7.38;;;;;;;;;;5126802;27;20032;-78
2021/03/28 05:17:34;;;;;;;11.23;7.07;;;;;;;;;;5125647;28;20027;-78
2021/03/28 05:20:35;;;;;;;14.82;7.07;;;;;;;;;;5125407;28;20466;-78
2021/03/28 05:23:23;;;;;;;11.48;6.78;;;;;;;;;;5123640;28;20154;-78
2021/03/28 05:26:23;;;;;;;10.02;6.05;;;;;;;;;;5125245;28;20028;-78
2021/03/28 05:29:27;;;;;;;11.40;6.57;;;;;;;;;;5130676;28;20043;-78
2021/03/28 05:32:03;;;;;;;11.88;6.05;;;;;;;;;;5110872;28;20402;-79
2021/03/28 05:35:02;;;;;;;10.35;5.93;;;;;;;;;;5131521;28;20039;-78
2021/03/28 05:37:47;;;;;;;13.00;6.57;;;;;;;;;;5128626;28;20043;-78
2021/03/28 05:40:41;;;;;;;12.82;5.70;;;;;;;;;;5119809;28;20047;-78
2021/03/28 05:43:07;;;;;;;10.02;5.90;;;;;;;;;;5113412;28;20036;-78
2021/03/28 05:45:47;;;;;;;12.52;5.53;;;;;;;;;;5111038;28;20084;-78
2021/03/28 05:48:22;;;;;;;14.18;5.45;;;;;;;;;;5110638;28;20047;-78
2021/03/28 05:50:56;;;;;;;9.40;5.18;;;;;;;;;;5111854;28;20036;-78
2021/03/28 05:53:59;;;;;;;10.75;5.18;;;;;;;;;;5109404;28;20035;-79
2021/03/28 05:57:05;;;;;;;16.10;5.38;;;;;;;;;;5110567;28;20050;-78
2021/03/28 06:00:03;;;;;;;8.93;4.40;;;;;;;;;;5111017;28;20452;-78
2021/03/28 06:03:08;;;;;;;10.02;5.13;;;;;;;;;;5110567;28;20043;-78
2021/03/28 06:05:36;;;;;;;13.63;4.95;;;;;;;;;;5109497;28;20035;-79
2021/03/28 06:08:17;;;;;;;24.98;6.93;;;;;;;;;;5108517;28;20036;-78
2021/03/28 06:11:23;;;;;;;10.77;4.75;;;;;;;;;;5128693;28;20047;-78
2021/03/28 06:14:21;;;;;;;10.00;4.38;;;;;;;;;;5131000;28;20592;-78
2021/03/28 06:16:59;;;;;;;8.35;4.35;;;;;;;;;;5130028;28;20036;-78
2021/03/28 06:19:46;;;;;;;10.10;5.15;;;;;;;;;;5129559;28;20032;-78
2021/03/28 06:22:39;;;;;;;13.18;4.78;;;;;;;;;;5128975;28;20397;-78
2021/03/28 06:25:26;;;;;;;12.93;5.93;;;;;;;;;;5123339;28;20035;-77
2021/03/28 06:28:28;;;;;;;8.50;5.13;;;;;;;;;;5117801;28;20130;-77
2021/03/28 06:31:18;;;;;;;11.40;4.38;;;;;;;;;;5115414;28;20079;-77
2021/03/28 06:34:10;;;;;;;10.65;4.93;;;;;;;;;;5115128;28;20032;-77
2021/03/28 06:37:00;;;;;;;12.88;5.55;;;;;;;;;;5114036;28;20039;-77
2021/03/28 06:39:47;;;;;;;10.35;6.63;;;;;;;;;;5107144;28;20090;-77
2021/03/28 06:42:32;;;;;;;9.18;4.72;;;;;;;;;;5092860;28;20047;-76
2021/03/28 06:45:16;;;;;;;11.65;4.85;;;;;;;;;;5093003;28;20167;-76
2021/03/28 06:48:12;;;;;;;9.13;5.15;;;;;;;;;;5093130;28;20036;-76
2021/03/28 06:50:55;;;;;;;13.70;5.25;;;;;;;;;;5093902;28;20506;-76
2021/03/28 06:53:59;;;;;;;9.45;4.90;;;;;;;;;;5094189;28;20058;-75
2021/03/28 06:56:49;;;;;;;9.50;5.57;;;;;;;;;;5093357;28;20036;-75
2021/03/28 06:59:34;;;;;;;9.90;5.47;;;;;;;;;;5072443;28;20090;-75
2021/03/28 07:02:36;;;;;;;12.25;6.25;;;;;;;;;;5073679;28;20038;-76
2021/03/28 07:05:30;;;;;;;14.13;5.50;;;;;;;;;;5073618;28;20436;-76
2021/03/28 07:08:23;;;;;;;9.65;5.45;;;;;;;;;;5073575;28;20371;-76
2021/03/28 07:10:57;;;;;;;15.07;5.82;;;;;;;;;;5073464;28;20028;-73
2021/03/28 07:13:48;;;;;;;11.10;5.00;;;;;;;;;;5073322;28;20533;-75
2021/03/28 07:16:49;;;;;;;10.43;5.78;;;;;;;;;;5073692;28;20036;-77
2021/03/28 07:19:44;;;;;;;12.38;5.30;;;;;;;;;;5073398;28;20044;-77
2021/03/28 07:22:35;;;;;;;9.73;5.40;;;;;;;;;;5079945;28;20032;-76
2021/03/28 07:25:23;;;;;;;11.07;6.15;;;;;;;;;;5082499;28;20060;-78
2021/03/28 07:28:19;;;;;;;10.40;6.25;;;;;;;;;;5084206;28;20525;-77
2021/03/28 07:30:53;;;;;;;11.90;6.13;;;;;;;;;;5087061;28;20040;-78
2021/03/28 07:33:49;;;;;;;15.40;5.80;;;;;;;;;;5090252;28;20462;-77
2021/03/28 07:36:56;;;;;;;8.50;4.68;;;;;;;;;;5084249;28;20469;-76
2021/03/28 07:40:04;;;;;;;10.43;5.85;;;;;;;;;;5085964;28;20131;-76
2021/03/28 07:42:47;;;;;;;13.00;5.93;;;;;;;;;;5093349;28;20031;-77
2021/03/28 07:45:19;;;;;;;15.88;5.85;;;;;;;;;;5085066;28;20036;-76
2021/03/28 07:47:59;;;;;;;10.75;6.00;;;;;;;;;;5073529;28;20072;-76
2021/03/28 07:51:02;;;;;;;8.20;5.10;;;;;;;;;;5093407;28;20370;-77
2021/03/28 07:53:55;;;;;;;11.00;5.40;;;;;;;;;;5083595;28;20089;-76
2021/03/28 07:56:37;;;;;;;12.60;4.97;;;;;;;;;;5081098;28;20033;-74
2021/03/28 07:59:17;;;;;;;7.95;4.45;;;;;;;;;;5072823;28;20052;-77
2021/03/28 08:01:51;;;;;;;12.07;5.18;;;;;;;;;;5073268;28;20067;-79
2021/03/28 08:04:33;;;;;;;15.25;7.72;;;;;;;;;;5072746;28;20090;-76
2021/03/28 08:07:12;;;;;;;14.05;8.13;;;;;;;;;;5073725;28;20394;-77
2021/03/28 08:09:47;;;;;;;13.63;7.15;;;;;;;;;;5072072;28;20036;-74
2021/03/28 08:12:32;;;;;;;14.23;6.10;;;;;;;;;;5072245;28;20032;-77
2021/03/28 08:15:12;;;;;;;8.50;4.35;;;;;;;;;;5072240;28;20040;-76
2021/03/28 08:17:58;;;;;;;9.93;4.93;;;;;;;;;;5072789;28;20052;-76
2021/03/28 08:20:34;;;;;;;8.05;4.63;;;;;;;;;;5089444;28;20058;-77
2021/03/28 08:23:25;;;;;;;9.20;4.35;;;;;;;;;;5097982;28;20040;-79
2021/03/28 08:26:09;;;;;;;11.60;4.40;;;;;;;;;;5097693;28;20408;-77
2021/03/28 08:28:44;;;;;;;13.23;3.90;;;;;;;;;;5094647;28;20490;-80
2021/03/28 08:31:15;;;;;;;11.60;4.65;;;;;;;;;;5097402;28;20043;-81
2021/03/28 08:34:18;;;;;;;11.27;4.20;;;;;;;;;;5095813;28;20036;-77
2021/03/28 08:37:17;;;;;;;7.80;3.80;;;;;;;;;;5093720;28;20111;-76
2021/03/28 08:39:42;;;;;;;10.88;4.25;;;;;;;;;;5093598;28;20031;-77
2021/03/28 08:42:13;;;;;;;9.40;4.35;;;;;;;;;;5093988;28;20040;-76
2021/03/28 08:44:57;;;;;;;12.80;5.10;;;;;;;;;;5092995;28;20397;-74
2021/03/28 08:47:44;;;;;;;11.30;4.45;;;;;;;;;;5091671;28;20089;-74
2021/03/28 08:50:21;;;;;;;11.40;5.32;;;;;;;;;;5092843;28;20032;-75
2021/03/28 08:53:15;;;;;;;15.35;7.45;;;;;;;;;;5091801;28;20381;-74
2021/03/28 08:56:11;;;;;;;13.10;6.00;;;;;;;;;;5091797;28;20136;-74
2021/03/28 08:58:54;;;;;;;13.65;6.15;;;;;;;;;;5092675;28;20059;-75
2021/03/28 09:01:34;;;;;;;11.23;5.15;;;;;;;;;;5092462;28;20067;-77
2021/03/28 09:04:11;;;;;;;10.32;5.05;;;;;;;;;;5092717;28;20040;-77
2021/03/28 09:07:00;;;;;;;11.10;5.07;;;;;;;;;;5094574;28;20065;-77
2021/03/28 09:09:46;;;;;;;12.90;5.35;;;;;;;;;;5096140;28;20089;-76
2021/03/28 09:12:37;;;;;;;10.07;5.53;;;;;;;;;;5096154;28;20036;-76
2021/03/28 09:15:24;;;;;;;11.35;5.32;;;;;;;;;;5095454;28;20047;-77
2021/03/28 09:18:21;;;;;;;13.70;5.15;;;;;;;;;;5095961;28;20028;-76
2021/03/28 09:21:20;;;;;;;10.80;4.55;;;;;;;;;;5096115;28;20035;-76
2021/03/28 09:24:00;;;;;;;8.23;4.20;;;;;;;;;;5087492;28;20092;-77
2021/03/28 09:26:59;;;;;;;10.50;4.30;;;;;;;;;;5085639;28;20043;-77
2021/03/28 09:29:33;;;;;;;11.05;4.32;;;;;;;;;;5083315;28;20048;-74
2021/03/28 09:32:47;;;;;;;8.73;4.07;;;;;;;;;;5092772;28;20044;-76
2021/03/28 09:35:34;;;;;;;11.57;3.60;;;;;;;;;;5084897;28;20493;-75
2021/03/28 09:38:14;;;;;;;11.98;3.55;;;;;;;;;;5083939;28;20088;-75
2021/03/28 09:40:58;;;;;;;9.40;3.13;;;;;;;;;;5091096;28;20032;-75
2021/03/28 09:43:32;;;;;;;11.40;3.15;;;;;;;;;;5095506;28;20046;-75
2021/03/28 09:46:07;;;;;;;7.88;2.88;;;;;;;;;;5095484;28;20042;-75
2021/03/28 09:48:48;;;;;;;13.38;3.35;;;;;;;;;;5095218;28;20424;-75
2021/03/28 09:51:45;;;;;;;7.72;3.03;;;;;;;;;;5095321;28;20458;-76
2021/03/28 09:54:49;;;;;;;8.90;2.90;;;;;;;;;;5094625;28;20028;-75
2021/03/28 09:57:43;;;;;;;4.65;2.53;;;;;;;;;;5086200;28;20067;-75
2021/03/28 10:00:20;;;;;;;8.55;2.65;;;;;;;;;;5095065;28;20447;-75
2021/03/28 10:03:17;;;;;;;5.70;2.17;;;;;;;;;;5095731;28;20032;-76
2021/03/28 10:05:42;;;;;;;10.17;2.50;;;;;;;;;;5094315;28;20552;-76
2021/03/28 10:08:15;;;;;;;7.50;2.30;;;;;;;;;;5097218;28;20071;-76
2021/03/28 10:11:09;;;;;;;5.35;2.00;;;;;;;;;;5097430;28;20032;-76
2021/03/28 10:14:12;;;;;;;9.63;2.50;;;;;;;;;;5094432;28;20032;-76
2021/03/28 10:17:03;;;;;;;10.40;2.75;;;;;;;;;;5099836;28;20070;-78
2021/03/28 10:19:45;;;;;;;6.40;2.28;;;;;;;;;;5095592;28;20506;-80
2021/03/28 10:22:30;;;;;;;7.03;2.13;;;;;;;;;;5105896;28;20032;-80
2021/03/28 10:25:04;;;;;;;7.82;2.42;;;;;;;;;;5098818;28;20031;-79
2021/03/28 10:28:19;;;;;;;10.73;2.55;;;;;;;;;;5092763;28;20067;-80
2021/03/28 10:31:14;;;;;;;7.45;2.60;;;;;;;;;;5093311;28;20032;-79
2021/03/28 10:33:58;;;;;;;7.80;2.55;;;;;;;;;;5093150;28;20070;-79
2021/03/28 10:36:27;;;;;;;9.88;2.67;;;;;;;;;;5076757;28;20046;-78
2021/03/28 10:39:29;;;;;;;5.15;2.10;;;;;;;;;;5079965;28;20086;-77
2021/03/28 10:42:07;;;;;;;10.85;3.47;;;;;;;;;;5094697;28;20430;-77
2021/03/28 10:45:21;;;;;;;11.70;3.47;;;;;;;;;;5099147;28;20068;-78
2021/03/28 10:48:12;;;;;;;12.25;3.60;;;;;;;;;;5097957;28;20032;-79
2021/03/28 10:50:58;;;;;;;13.05;2.85;;;;;;;;;;5097496;28;20031;-79
2021/03/28 10:53:48;;;;;;;10.15;2.35;;;;;;;;;;5100556;28;20489;-78
2021/03/28 10:56:24;;;;;;;9.65;2.25;;;;;;;;;;5108079;28;20032;-79
2021/03/28 10:59:20;;;;;;;8.05;2.60;;;;;;;;;;5100671;28;20028;-77
2021/03/28 11:02:23;;;;;;;11.43;3.10;;;;;;;;;;5099235;28;20111;-78
2021/03/28 11:05:10;;;;;;;8.98;2.42;;;;;;;;;;5099936;28;20058;-78
2021/03/28 11:08:27;;;;;;;9.68;2.60;;;;;;;;;;5105526;28;20038;-79
2021/03/28 11:11:08;;;;;;;9.63;2.22;;;;;;;;;;5078266;28;20028;-78
2021/03/28 11:13:53;;;;;;;11.48;3.28;;;;;;;;;;5057288;28;20043;-77
2021/03/28 11:16:24;;;;;;;8.07;2.20;;;;;;;;;;5075086;28;20086;-77
2021/03/28 11:18:55;;;;;;;9.35;2.92;;;;;;;;;;5074957;28;20032;-77
2021/03/28 11:21:27;;;;;;;9.25;2.75;;;;;;;;;;5073631;28;20048;-78
2021/03/28 11:24:15;;;;;;;8.10;2.55;;;;;;;;;;5109506;28;20041;-82
2021/03/28 11:26:49;;;;;;;7.22;2.15;;;;;;;;;;5116955;28;20046;-81
2021/03/28 11:29:46;;;;;;;11.55;2.85;;;;;;;;;;5115545;28;20035;-78
2021/03/28 11:32:39;;;;;;;8.05;2.83;;;;;;;;;;5114146;28;20138;-80
2021/03/28 11:35:10;;;;;;;7.70;2.33;;;;;;;;;;5094748;28;20035;-81
2021/03/28 11:37:47;;;;;;;9.75;2.50;;;;;;;;;;5112407;28;20036;-78
2021/03/28 11:40:16;;;;;;;10.57;2.70;;;;;;;;;;5094952;28;20478;-81
2021/03/28 11:42:44;;;;;;;11.95;2.70;;;;;;;;;;5093336;28;20082;-80
2021/03/28 11:45:30;;;;;;;13.82;2.90;;;;;;;;;;5075401;28;20378;-77
2021/03/28 11:47:56;;;;;;;6.15;2.40;;;;;;;;;;5073406;28;20036;-77
2021/03/28 11:50:28;;;;;;;7.78;2.42;;;;;;;;;;5073073;28;20032;-77
2021/03/28 11:53:11;;;;;;;7.28;2.10;;;;;;;;;;5073091;28;20037;-77
2021/03/28 11:55:54;;;;;;;6.60;2.10;;;;;;;;;;5071842;28;20032;-77
2021/03/28 11:58:38;;;;;;;6.97;2.38;;;;;;;;;;5072856;28;20032;-77
2021/03/28 12:01:04;;;;;;;8.13;2.20;;;;;;;;;;5073160;28;20036;-77
2021/03/28 12:03:36;;;;;;;4.93;2.20;;;;;;;;;;5072932;28;20432;-77
2021/03/28 12:06:09;;;;;;;8.93;2.10;;;;;;;;;;5072957;28;20040;-77
2021/03/28 12:08:46;;;;;;;5.38;2.08;;;;;;;;;;5072866;28;20039;-77
2021/03/28 12:11:33;;;;;;;7.22;2.03;;;;;;;;;;5092973;28;20032;-77
2021/03/28 12:14:18;;;;;;;11.75;2.67;;;;;;;;;;5092818;28;20039;-77
2021/03/28 12:17:05;;;;;;;7.15;2.58;;;;;;;;;;5092810;28;20030;-77
2021/03/28 12:19:49;;;;;;;6.05;2.13;;;;;;;;;;5092815;28;20040;-77
2021/03/28 12:22:19;;;;;;;5.45;1.83;;;;;;;;;;5091957;28;20028;-77
2021/03/28 12:24:58;;;;;;;10.18;2.15;;;;;;;;;;5092908;28;20032;-77
2021/03/28 12:27:29;;;;;;;11.57;2.58;;;;;;;;;;5092659;28;20052;-77
2021/03/28 12:29:55;;;;;;;8.00;2.38;;;;;;;;;;5092611;28;20494;-77
2021/03/28 12:32:39;;;;;;;6.75;2.50;;;;;;;;;;5092806;28;20035;-77
2021/03/28 12:35:26;;;;;;;8.40;2.22;;;;;;;;;;5093103;28;20035;-77
2021/03/28 12:37:52;;;;;;;8.82;2.10;;;;;;;;;;5092701;28;20032;-77
2021/03/28 12:40:34;;;;;;;8.65;1.80;;;;;;;;;;5095095;28;20024;-77
2021/03/28 12:43:02;;;;;;;4.47;1.45;;;;;;;;;;5076067;28;20466;-77
2021/03/28 12:45:27;;;;;;;8.98;2.03;;;;;;;;;;5076257;28;20040;-77
2021/03/28 12:47:55;;;;;;;5.80;2.35;;;;;;;;;;5076283;28;20044;-77
2021/03/28 12:50:32;;;;;;;8.43;1.88;;;;;;;;;;5076300;28;20028;-77
2021/03/28 12:53:16;;;;;;;4.75;1.73;;;;;;;;;;5076114;28;20037;-77
2021/03/28 12:55:47;;;;;;;4.30;1.42;;;;;;;;;;5076269;28;20098;-77
2021/03/28 12:58:17;;;;;;;9.70;1.80;;;;;;;;;;5076010;28;20054;-77
2021/03/28 13:00:45;;;;;;;7.70;1.70;;;;;;;;;;5076048;28;20364;-77
2021/03/28 13:03:35;;;;;;;6.45;1.90;;;;;;;;;;5074634;28;20115;-76
2021/03/28 13:06:05;;;;;;;4.40;1.58;;;;;;;;;;5075835;28;20039;-77
2021/03/28 13:08:39;;;;;;;6.93;2.10;;;;;;;;;;5075961;28;20486;-76
2021/03/28 13:11:05;;;;;;;8.45;1.70;;;;;;;;;;5082264;28;20028;-76
2021/03/28 13:13:40;;;;;;;8.60;1.95;;;;;;;;;;5094842;28;20032;-77
2021/03/28 13:16:22;;;;;;;6.38;2.35;;;;;;;;;;5094873;28;20043;-77
2021/03/28 13:18:48;;;;;;;7.57;1.73;;;;;;;;;;5096726;28;20486;-76
2021/03/28 13:21:22;;;;;;;6.55;2.20;;;;;;;;;;5096985;28;20049;-76
2021/03/28 13:23:48;;;;;;;6.18;1.75;;;;;;;;;;5096931;28;20036;-75
2021/03/28 13:26:16;;;;;;;11.10;1.73;;;;;;;;;;5096580;28;20050;-76
2021/03/28 13:28:52;;;;;;;7.95;1.90;;;;;;;;;;5096222;28;20410;-75
2021/03/28 13:31:32;;;;;;;5.88;1.73;;;;;;;;;;5095403;28;20028;-75
2021/03/28 13:34:01;;;;;;;9.65;2.60;;;;;;;;;;5096358;28;20032;-76
2021/03/28 13:36:43;;;;;;;9.77;1.85;;;;;;;;;;5096111;28;20044;-76
2021/03/28 13:39:08;;;;;;;6.93;1.55;;;;;;;;;;5095075;28;20032;-76
2021/03/28 13:41:37;;;;;;;6.97;1.88;;;;;;;;;;5096211;28;20036;-75
2021/03/28 13:44:25;;;;;;;5.97;1.77;;;;;;;;;;5096040;28;20048;-76
2021/03/28 13:46:55;;;;;;;6.18;2.00;;;;;;;;;;5094711;28;20077;-76
2021/03/28 13:49:40;;;;;;;6.95;1.80;;;;;;;;;;5095342;28;20035;-76
2021/03/28 13:52:14;;;;;;;7.93;2.22;;;;;;;;;;5094892;28;20036;-76
2021/03/28 13:54:42;;;;;;;8.40;2.17;;;;;;;;;;5095465;28;20028;-76
2021/03/28 13:57:13;;;;;;;7.22;1.98;;;;;;;;;;5095265;28;20036;-77
2021/03/28 13:59:57;;;;;;;7.55;2.17;;;;;;;;;;5095008;28;20478;-77
2021/03/28 14:02:23;;;;;;;6.95;2.03;;;;;;;;;;5094908;28;20032;-75
2021/03/28 14:05:00;;;;;;;8.90;2.45;;;;;;;;;;5095434;28;20032;-77
2021/03/28 14:07:46;;;;;;;7.18;2.15;;;;;;;;;;5094996;28;20036;-77
2021/03/28 14:10:32;;;;;;;6.90;2.05;;;;;;;;;;5095122;28;20027;-77
2021/03/28 14:13:16;;;;;;;;;;;;;;;;;;5095061;28;20036;-77
2021/03/28 14:15:52;;;;;;;5.20;1.63;;;;;;;;;;5092786;28;19918;-77
2021/03/28 14:18:23;;;;;;;9.38;2.00;;;;;;;;;;5087711;28;20051;-77
2021/03/28 14:21:09;;;;;;;6.72;1.88;;;;;;;;;;5094770;28;20071;-77
2021/03/28 14:23:44;;;;;;;9.37;2.90;;;;;;;;;;5094898;28;20426;-77
2021/03/28 14:26:09;;;;;;;6.75;1.80;;;;;;;;;;5083664;28;20516;-78
2021/03/28 14:28:39;;;;;;;7.22;2.30;;;;;;;;;;5083463;28;20048;-77
2021/03/28 14:31:10;;;;;;;9.13;1.92;;;;;;;;;;5083543;28;20044;-77
2021/03/28 14:33:57;;;;;;;6.45;2.30;;;;;;;;;;5082729;28;20037;-77
2021/03/28 14:36:32;;;;;;;7.03;2.03;;;;;;;;;;5084335;28;20082;-77
2021/03/28 14:39:22;;;;;;;5.93;1.85;;;;;;;;;;5082913;28;20182;-77
2021/03/28 14:42:00;;;;;;;5.82;2.15;;;;;;;;;;5082192;28;20035;-77
2021/03/28 14:44:56;;;;;;;5.40;1.40;;;;;;;;;;5092360;28;20035;-77
2021/03/28 14:47:30;;;;;;;6.32;1.92;;;;;;;;;;5093212;28;20024;-77
2021/03/28 14:50:04;;;;;;;7.43;1.90;;;;;;;;;;5084973;28;20453;-77
2021/03/28 14:52:51;;;;;;;6.18;1.88;;;;;;;;;;5083995;28;20028;-77
2021/03/28 14:55:31;;;;;;;8.60;2.10;;;;;;;;;;5084625;28;20038;-77
2021/03/28 14:58:15;;;;;;;11.85;2.38;;;;;;;;;;5082165;28;20785;-77
2021/03/28 15:01:06;;;;;;;8.27;2.08;;;;;;;;;;5082768;28;20043;-77
2021/03/28 15:04:29;;;;;;;5.82;1.70;;;;;;;;;;5080470;28;20040;-77
2021/03/28 15:07:24;;;;;;;8.60;2.00;;;;;;;;;;5031615;28;20124;-77
2021/03/28 15:10:20;;;;;;;9.00;2.22;;;;;;;;;;5037551;28;20040;-77
2021/03/28 15:13:01;;;;;;;8.23;2.17;;;;;;;;;;5073965;28;20055;-77
2021/03/28 15:15:37;;;;;;;7.07;1.80;;;;;;;;;;5055709;28;20040;-77
2021/03/28 15:18:41;;;;;;;5.43;2.10;;;;;;;;;;5072171;28;20174;-77
2021/03/28 15:21:22;;;;;;;8.52;2.72;;;;;;;;;;5076330;28;20075;-77
2021/03/28 15:24:10;;;;;;;11.10;2.47;;;;;;;;;;5083366;28;20032;-76
2021/03/28 15:26:54;;;;;;;6.60;2.00;;;;;;;;;;5065599;28;20036;-76
2021/03/28 15:29:29;;;;;;;8.30;2.60;;;;;;;;;;5086922;28;20543;-76
2021/03/28 15:32:32;;;;;;;8.05;1.95;;;;;;;;;;5093465;28;20032;-77
2021/03/28 15:35:16;;;;;;;6.90;2.10;;;;;;;;;;5093381;28;20144;-77
2021/03/28 15:37:54;;;;;;;6.55;1.88;;;;;;;;;;5093097;28;20035;-77
2021/03/28 15:40:41;;;;;;;13.25;2.25;;;;;;;;;;5093408;28;20044;-77
2021/03/28 15:43:47;;;;;;;8.10;2.28;;;;;;;;;;5093418;28;20032;-77
2021/03/28 15:46:22;;;;;;;6.87;2.00;;;;;;;;;;5093429;28;20035;-77
2021/03/28 15:49:21;;;;;;;8.70;2.28;;;;;;;;;;5087263;28;20307;-77
2021/03/28 15:52:12;;;;;;;7.15;1.90;;;;;;;;;;5080855;28;20123;-76
2021/03/28 15:55:14;;;;;;;5.32;1.60;;;;;;;;;;5082246;28;20445;-76
2021/03/28 15:58:04;;;;;;;5.10;1.50;;;;;;;;;;5082548;28;20043;-76
2021/03/28 16:00:47;;;;;;;6.60;1.73;;;;;;;;;;5083428;28;20032;-76
2021/03/28 16:03:15;;;;;;;6.72;2.10;;;;;;;;;;5082186;28;20526;-76
2021/03/28 16:06:25;;;;;;;6.43;1.70;;;;;;;;;;5071668;28;20085;-76
2021/03/28 16:09:02;;;;;;;6.30;2.08;;;;;;;;;;5074926;28;20043;-77
2021/03/28 16:11:53;;;;;;;4.60;1.70;;;;;;;;;;5093326;28;20036;-77